This is the latest recevied weather packets stored in our database for station/object K4FB. If no packets are shown the sender has not sent any weather packets the latest 10 day(s).
| Time | Temp. | Humidity | Pressure | Rain* | Wind** | Luminosity | Snow |
|---|---|---|---|---|---|---|---|
| 1777837809 | 25.56° C | 63% | 1016.8 hPa | 0 mm | - | - | - |
| 1777833029 | 26.67° C | 65% | 1018.1 hPa | 0 mm | - | - | - |
| 1777832412 | 25.56° C | 67% | 1018.1 hPa | 0 mm | - | - | - |
| 1777830607 | 25.56° C | 64% | 1018.5 hPa | 0 mm | - | - | - |
| 1777829440 | 25° C | 68% | 1018.7 hPa | 0 mm | - | - | - |
| 1777829112 | 24.44° C | 69% | 1018.8 hPa | 0 mm | - | - | - |
| 1777828203 | 24.44° C | 71% | 1018.7 hPa | 0 mm | - | - | - |
| 1777827009 | 23.33° C | 71% | 1018.9 hPa | 0 mm | - | - | - |
| 1777826732 | 23.33° C | 72% | 1018.9 hPa | 0 mm | - | - | - |
| 1777826107 | 23.89° C | 72% | 1019 hPa | 0 mm | - | - | - |
| 1777825204 | 22.78° C | 74% | 1019.1 hPa | 0 mm | - | - | - |
| 1777823706 | 22.22° C | 74% | 1019.2 hPa | 0 mm | - | - | - |
| 1777821326 | 20.56° C | 81% | 1019.2 hPa | 0 mm | - | - | - |
| 1777821007 | 20.56° C | 81% | 1019.2 hPa | 0 mm | - | - | - |
| 1777816503 | 18.89° C | 88% | 1018.7 hPa | 0 mm | - | - | - |
| 1777814704 | 18.33° C | 89% | 1018.2 hPa | 0 mm | - | - | - |
| 1777814408 | 18.33° C | 89% | 1018.1 hPa | 0 mm | - | - | - |
| 1777813809 | 18.33° C | 89% | 1017.8 hPa | 0 mm | - | - | - |
| 1777813222 | 18.33° C | 89% | 1017.8 hPa | 0 mm | - | - | - |
| 1777812010 | 18.33° C | 91% | 1017.7 hPa | 0 mm | - | - | - |
| 1777811703 | 17.78° C | 91% | 1017.7 hPa | 0 mm | - | - | - |
| 1777809307 | 17.78° C | 92% | 1017.1 hPa | 0 mm | - | - | - |
| 1777809009 | 17.78° C | 93% | 1017.1 hPa | 0 mm | - | - | - |
| 1777807207 | 17.78° C | 93% | 1016.7 hPa | 0 mm | - | - | - |
| 1777806007 | 17.78° C | 94% | 1016.6 hPa | 0 mm | - | - | - |
* Rain latest hour (hover to see other rain measurements)
** Current wind speed in m/s (hover to see current wind gust speed)